sensor_id;sensor_type;location;lat;lon;timestamp;P1;durP1;ratioP1;P2;durP2;ratioP2
23628;SDS011;11991;57.150;-2.134;2023-05-10T00:00:47;0.82;;;0.80;;
23628;SDS011;11991;57.150;-2.134;2023-05-10T00:03:14;0.73;;;0.70;;
23628;SDS011;11991;57.150;-2.134;2023-05-10T00:05:42;1.27;;;0.90;;
23628;SDS011;11991;57.150;-2.134;2023-05-10T00:08:09;1.80;;;1.00;;
23628;SDS011;11991;57.150;-2.134;2023-05-10T00:10:36;1.10;;;1.00;;
23628;SDS011;11991;57.150;-2.134;2023-05-10T00:13:03;1.65;;;0.90;;
23628;SDS011;11991;57.150;-2.134;2023-05-10T00:15:31;1.42;;;1.08;;
23628;SDS011;11991;57.150;-2.134;2023-05-10T00:17:58;1.52;;;1.05;;
23628;SDS011;11991;57.150;-2.134;2023-05-10T00:20:25;1.40;;;1.00;;
23628;SDS011;11991;57.150;-2.134;2023-05-10T00:22:52;1.27;;;0.90;;
23628;SDS011;11991;57.150;-2.134;2023-05-10T00:25:19;0.85;;;0.80;;
23628;SDS011;11991;57.150;-2.134;2023-05-10T00:27:47;1.95;;;1.20;;
23628;SDS011;11991;57.150;-2.134;2023-05-10T00:30:16;1.02;;;0.88;;
23628;SDS011;11991;57.150;-2.134;2023-05-10T00:32:43;1.05;;;0.98;;
23628;SDS011;11991;57.150;-2.134;2023-05-10T00:35:10;0.77;;;0.70;;
23628;SDS011;11991;57.150;-2.134;2023-05-10T00:37:37;1.02;;;0.90;;
23628;SDS011;11991;57.150;-2.134;2023-05-10T00:40:05;0.60;;;0.60;;
23628;SDS011;11991;57.150;-2.134;2023-05-10T00:42:33;0.40;;;0.40;;
23628;SDS011;11991;57.150;-2.134;2023-05-10T00:45:00;0.73;;;0.60;;
23628;SDS011;11991;57.150;-2.134;2023-05-10T00:47:28;0.75;;;0.75;;
23628;SDS011;11991;57.150;-2.134;2023-05-10T00:49:56;2.38;;;1.42;;
23628;SDS011;11991;57.150;-2.134;2023-05-10T00:52:24;3.13;;;1.25;;
23628;SDS011;11991;57.150;-2.134;2023-05-10T00:54:52;2.33;;;1.30;;
23628;SDS011;11991;57.150;-2.134;2023-05-10T00:57:19;1.48;;;1.30;;
23628;SDS011;11991;57.150;-2.134;2023-05-10T00:59:48;1.00;;;0.90;;
23628;SDS011;11991;57.150;-2.134;2023-05-10T01:02:15;1.67;;;1.38;;
23628;SDS011;11991;57.150;-2.134;2023-05-10T01:04:42;1.35;;;1.00;;
23628;SDS011;11991;57.150;-2.134;2023-05-10T01:07:10;1.73;;;1.30;;
23628;SDS011;11991;57.150;-2.134;2023-05-10T01:09:37;1.52;;;0.90;;
23628;SDS011;11991;57.150;-2.134;2023-05-10T01:12:04;1.13;;;0.90;;
23628;SDS011;11991;57.150;-2.134;2023-05-10T01:14:33;0.50;;;0.50;;
23628;SDS011;11991;57.150;-2.134;2023-05-10T01:17:02;0.50;;;0.50;;
23628;SDS011;11991;57.150;-2.134;2023-05-10T01:19:31;0.60;;;0.57;;
23628;SDS011;11991;57.150;-2.134;2023-05-10T01:27:47;1.20;;;0.98;;
23628;SDS011;11991;57.150;-2.134;2023-05-10T01:38:47;1.40;;;1.00;;
23628;SDS011;11991;57.150;-2.134;2023-05-10T01:41:32;1.02;;;0.88;;
23628;SDS011;11991;57.150;-2.134;2023-05-10T01:44:09;1.48;;;1.20;;
23628;SDS011;11991;57.150;-2.134;2023-05-10T01:46:57;1.98;;;1.40;;
23628;SDS011;11991;57.150;-2.134;2023-05-10T01:49:34;0.88;;;0.80;;
23628;SDS011;11991;57.150;-2.134;2023-05-10T01:52:09;2.25;;;1.52;;
23628;SDS011;11991;57.150;-2.134;2023-05-10T01:54:41;1.33;;;1.02;;
23628;SDS011;11991;57.150;-2.134;2023-05-10T01:57:11;1.13;;;0.90;;
23628;SDS011;11991;57.150;-2.134;2023-05-10T01:59:40;1.17;;;0.98;;
23628;SDS011;11991;57.150;-2.134;2023-05-10T02:02:11;0.98;;;0.85;;
23628;SDS011;11991;57.150;-2.134;2023-05-10T02:04:41;0.70;;;0.70;;
23628;SDS011;11991;57.150;-2.134;2023-05-10T02:07:09;1.55;;;1.10;;
23628;SDS011;11991;57.150;-2.134;2023-05-10T02:09:37;1.20;;;0.80;;
23628;SDS011;11991;57.150;-2.134;2023-05-10T02:12:05;2.13;;;1.40;;
23628;SDS011;11991;57.150;-2.134;2023-05-10T02:14:34;1.98;;;1.40;;
23628;SDS011;11991;57.150;-2.134;2023-05-10T02:17:04;1.73;;;1.10;;
23628;SDS011;11991;57.150;-2.134;2023-05-10T02:19:33;1.00;;;0.82;;
23628;SDS011;11991;57.150;-2.134;2023-05-10T02:22:04;1.10;;;1.00;;
23628;SDS011;11991;57.150;-2.134;2023-05-10T02:24:32;1.27;;;0.90;;
23628;SDS011;11991;57.150;-2.134;2023-05-10T02:27:01;1.10;;;0.85;;
23628;SDS011;11991;57.150;-2.134;2023-05-10T02:29:30;1.40;;;1.05;;
23628;SDS011;11991;57.150;-2.134;2023-05-10T02:31:59;2.55;;;1.95;;
23628;SDS011;11991;57.150;-2.134;2023-05-10T02:34:27;1.70;;;1.15;;
23628;SDS011;11991;57.150;-2.134;2023-05-10T02:36:55;1.55;;;1.17;;
23628;SDS011;11991;57.150;-2.134;2023-05-10T02:39:22;1.42;;;1.00;;
23628;SDS011;11991;57.150;-2.134;2023-05-10T02:41:52;1.17;;;0.98;;
23628;SDS011;11991;57.150;-2.134;2023-05-10T02:44:21;1.63;;;1.30;;
23628;SDS011;11991;57.150;-2.134;2023-05-10T02:46:50;1.15;;;0.93;;
23628;SDS011;11991;57.150;-2.134;2023-05-10T02:49:17;1.10;;;0.90;;
23628;SDS011;11991;57.150;-2.134;2023-05-10T02:51:56;1.67;;;0.98;;
23628;SDS011;11991;57.150;-2.134;2023-05-10T02:54:27;1.08;;;0.82;;
23628;SDS011;11991;57.150;-2.134;2023-05-10T02:56:58;1.23;;;0.98;;
23628;SDS011;11991;57.150;-2.134;2023-05-10T02:59:29;0.88;;;0.88;;
23628;SDS011;11991;57.150;-2.134;2023-05-10T03:01:57;1.33;;;1.00;;
23628;SDS011;11991;57.150;-2.134;2023-05-10T03:04:26;0.52;;;0.50;;
23628;SDS011;11991;57.150;-2.134;2023-05-10T03:06:55;1.90;;;1.40;;
23628;SDS011;11991;57.150;-2.134;2023-05-10T03:09:22;1.20;;;0.93;;
23628;SDS011;11991;57.150;-2.134;2023-05-10T03:19:58;1.77;;;1.25;;
23628;SDS011;11991;57.150;-2.134;2023-05-10T03:22:37;2.08;;;1.30;;
23628;SDS011;11991;57.150;-2.134;2023-05-10T03:25:10;2.88;;;2.13;;
23628;SDS011;11991;57.150;-2.134;2023-05-10T03:27:40;2.85;;;1.95;;
23628;SDS011;11991;57.150;-2.134;2023-05-10T03:30:10;2.33;;;1.90;;
23628;SDS011;11991;57.150;-2.134;2023-05-10T03:32:38;3.15;;;1.73;;
23628;SDS011;11991;57.150;-2.134;2023-05-10T03:35:09;2.42;;;1.50;;
23628;SDS011;11991;57.150;-2.134;2023-05-10T03:37:38;1.40;;;0.98;;
23628;SDS011;11991;57.150;-2.134;2023-05-10T03:40:06;1.42;;;1.13;;
23628;SDS011;11991;57.150;-2.134;2023-05-10T03:42:36;1.80;;;1.23;;
23628;SDS011;11991;57.150;-2.134;2023-05-10T03:45:03;1.80;;;1.30;;
23628;SDS011;11991;57.150;-2.134;2023-05-10T03:47:30;1.85;;;1.20;;
23628;SDS011;11991;57.150;-2.134;2023-05-10T03:49:58;2.00;;;1.35;;
23628;SDS011;11991;57.150;-2.134;2023-05-10T03:52:25;1.80;;;1.13;;
23628;SDS011;11991;57.150;-2.134;2023-05-10T03:54:52;3.15;;;1.67;;
23628;SDS011;11991;57.150;-2.134;2023-05-10T03:57:20;1.60;;;1.13;;
23628;SDS011;11991;57.150;-2.134;2023-05-10T03:59:46;2.03;;;1.20;;
23628;SDS011;11991;57.150;-2.134;2023-05-10T04:02:14;2.35;;;1.50;;
23628;SDS011;11991;57.150;-2.134;2023-05-10T04:04:41;1.38;;;0.90;;
23628;SDS011;11991;57.150;-2.134;2023-05-10T04:07:08;2.00;;;1.00;;
23628;SDS011;11991;57.150;-2.134;2023-05-10T04:09:36;1.23;;;1.00;;
23628;SDS011;11991;57.150;-2.134;2023-05-10T04:12:03;2.22;;;1.23;;
23628;SDS011;11991;57.150;-2.134;2023-05-10T04:14:33;1.83;;;1.05;;
23628;SDS011;11991;57.150;-2.134;2023-05-10T04:17:00;1.58;;;0.80;;
23628;SDS011;11991;57.150;-2.134;2023-05-10T04:19:31;1.80;;;1.10;;
23628;SDS011;11991;57.150;-2.134;2023-05-10T04:21:58;2.05;;;1.20;;
23628;SDS011;11991;57.150;-2.134;2023-05-10T04:24:25;1.10;;;0.90;;
23628;SDS011;11991;57.150;-2.134;2023-05-10T04:26:53;1.55;;;1.25;;
23628;SDS011;11991;57.150;-2.134;2023-05-10T04:29:23;1.15;;;0.90;;
23628;SDS011;11991;57.150;-2.134;2023-05-10T04:31:50;1.65;;;1.17;;
23628;SDS011;11991;57.150;-2.134;2023-05-10T04:34:17;1.60;;;0.85;;
23628;SDS011;11991;57.150;-2.134;2023-05-10T04:36:45;1.48;;;1.15;;
23628;SDS011;11991;57.150;-2.134;2023-05-10T04:39:12;1.65;;;1.27;;
23628;SDS011;11991;57.150;-2.134;2023-05-10T04:41:40;0.70;;;0.70;;
23628;SDS011;11991;57.150;-2.134;2023-05-10T04:44:07;1.30;;;1.17;;
23628;SDS011;11991;57.150;-2.134;2023-05-10T04:46:34;1.25;;;0.98;;
23628;SDS011;11991;57.150;-2.134;2023-05-10T04:49:01;1.10;;;0.90;;
23628;SDS011;11991;57.150;-2.134;2023-05-10T04:51:28;1.15;;;1.05;;
23628;SDS011;11991;57.150;-2.134;2023-05-10T04:53:55;1.02;;;0.82;;
23628;SDS011;11991;57.150;-2.134;2023-05-10T04:56:32;2.13;;;1.48;;
23628;SDS011;11991;57.150;-2.134;2023-05-10T04:59:00;0.80;;;0.70;;
23628;SDS011;11991;57.150;-2.134;2023-05-10T05:01:27;1.02;;;0.75;;
23628;SDS011;11991;57.150;-2.134;2023-05-10T05:03:54;0.88;;;0.88;;
23628;SDS011;11991;57.150;-2.134;2023-05-10T05:06:21;1.27;;;0.60;;
23628;SDS011;11991;57.150;-2.134;2023-05-10T05:08:48;0.63;;;0.60;;
23628;SDS011;11991;57.150;-2.134;2023-05-10T05:11:16;0.73;;;0.70;;
23628;SDS011;11991;57.150;-2.134;2023-05-10T05:13:44;0.88;;;0.70;;
23628;SDS011;11991;57.150;-2.134;2023-05-10T05:16:11;2.72;;;0.93;;
23628;SDS011;11991;57.150;-2.134;2023-05-10T05:18:38;0.50;;;0.50;;
23628;SDS011;11991;57.150;-2.134;2023-05-10T05:21:14;0.57;;;0.57;;
23628;SDS011;11991;57.150;-2.134;2023-05-10T05:23:42;1.15;;;0.88;;
23628;SDS011;11991;57.150;-2.134;2023-05-10T05:26:09;1.48;;;0.80;;
23628;SDS011;11991;57.150;-2.134;2023-05-10T05:28:37;0.60;;;0.60;;
23628;SDS011;11991;57.150;-2.134;2023-05-10T05:31:04;0.93;;;0.85;;
23628;SDS011;11991;57.150;-2.134;2023-05-10T05:33:32;0.68;;;0.60;;
23628;SDS011;11991;57.150;-2.134;2023-05-10T05:36:02;0.55;;;0.55;;
23628;SDS011;11991;57.150;-2.134;2023-05-10T05:38:30;0.60;;;0.60;;
23628;SDS011;11991;57.150;-2.134;2023-05-10T05:40:57;1.25;;;1.05;;
23628;SDS011;11991;57.150;-2.134;2023-05-10T05:43:25;0.85;;;0.80;;
23628;SDS011;11991;57.150;-2.134;2023-05-10T05:45:52;0.80;;;0.80;;
23628;SDS011;11991;57.150;-2.134;2023-05-10T05:48:20;0.60;;;0.60;;
23628;SDS011;11991;57.150;-2.134;2023-05-10T05:50:47;1.05;;;0.90;;
23628;SDS011;11991;57.150;-2.134;2023-05-10T05:53:14;1.48;;;0.93;;
23628;SDS011;11991;57.150;-2.134;2023-05-10T05:55:52;1.60;;;1.00;;
23628;SDS011;11991;57.150;-2.134;2023-05-10T05:58:21;0.93;;;0.80;;
23628;SDS011;11991;57.150;-2.134;2023-05-10T06:00:49;1.42;;;1.20;;
23628;SDS011;11991;57.150;-2.134;2023-05-10T06:03:16;1.92;;;1.10;;
23628;SDS011;11991;57.150;-2.134;2023-05-10T06:05:43;1.55;;;1.20;;
23628;SDS011;11991;57.150;-2.134;2023-05-10T06:08:11;1.40;;;1.20;;
23628;SDS011;11991;57.150;-2.134;2023-05-10T06:10:38;1.70;;;1.38;;
23628;SDS011;11991;57.150;-2.134;2023-05-10T06:13:05;1.30;;;1.02;;
23628;SDS011;11991;57.150;-2.134;2023-05-10T06:15:32;2.35;;;1.55;;
23628;SDS011;11991;57.150;-2.134;2023-05-10T06:17:59;1.30;;;0.90;;
23628;SDS011;11991;57.150;-2.134;2023-05-10T06:20:26;2.63;;;1.60;;
23628;SDS011;11991;57.150;-2.134;2023-05-10T06:22:54;0.88;;;0.80;;
23628;SDS011;11991;57.150;-2.134;2023-05-10T06:25:21;0.93;;;0.90;;
23628;SDS011;11991;57.150;-2.134;2023-05-10T06:27:48;1.55;;;1.38;;
23628;SDS011;11991;57.150;-2.134;2023-05-10T06:30:19;2.13;;;1.20;;
23628;SDS011;11991;57.150;-2.134;2023-05-10T06:32:46;0.90;;;0.85;;
23628;SDS011;11991;57.150;-2.134;2023-05-10T06:35:13;2.25;;;1.50;;
23628;SDS011;11991;57.150;-2.134;2023-05-10T06:37:41;1.20;;;1.10;;
23628;SDS011;11991;57.150;-2.134;2023-05-10T06:40:08;1.77;;;1.08;;
23628;SDS011;11991;57.150;-2.134;2023-05-10T06:42:35;1.52;;;0.90;;
23628;SDS011;11991;57.150;-2.134;2023-05-10T06:45:02;1.88;;;1.25;;
23628;SDS011;11991;57.150;-2.134;2023-05-10T06:47:30;1.15;;;0.98;;
23628;SDS011;11991;57.150;-2.134;2023-05-10T06:49:58;1.73;;;1.30;;
23628;SDS011;11991;57.150;-2.134;2023-05-10T06:52:25;1.38;;;1.02;;
23628;SDS011;11991;57.150;-2.134;2023-05-10T06:54:52;1.83;;;1.63;;
23628;SDS011;11991;57.150;-2.134;2023-05-10T06:57:19;2.45;;;1.30;;
23628;SDS011;11991;57.150;-2.134;2023-05-10T06:59:57;1.60;;;1.30;;
23628;SDS011;11991;57.150;-2.134;2023-05-10T07:02:25;1.40;;;1.10;;
23628;SDS011;11991;57.150;-2.134;2023-05-10T07:04:53;5.45;;;2.33;;
23628;SDS011;11991;57.150;-2.134;2023-05-10T07:07:20;1.83;;;1.52;;
23628;SDS011;11991;57.150;-2.134;2023-05-10T07:09:47;1.10;;;1.00;;
23628;SDS011;11991;57.150;-2.134;2023-05-10T07:12:16;2.30;;;1.27;;
23628;SDS011;11991;57.150;-2.134;2023-05-10T07:14:43;1.58;;;1.27;;
23628;SDS011;11991;57.150;-2.134;2023-05-10T07:17:10;1.80;;;1.35;;
23628;SDS011;11991;57.150;-2.134;2023-05-10T07:19:37;3.20;;;1.83;;
23628;SDS011;11991;57.150;-2.134;2023-05-10T07:22:04;1.92;;;1.48;;
23628;SDS011;11991;57.150;-2.134;2023-05-10T07:24:32;1.77;;;1.40;;
23628;SDS011;11991;57.150;-2.134;2023-05-10T07:26:59;1.38;;;1.27;;
23628;SDS011;11991;57.150;-2.134;2023-05-10T07:29:27;1.10;;;0.90;;
23628;SDS011;11991;57.150;-2.134;2023-05-10T07:31:54;1.15;;;1.00;;
23628;SDS011;11991;57.150;-2.134;2023-05-10T07:34:24;1.10;;;0.93;;
23628;SDS011;11991;57.150;-2.134;2023-05-10T07:36:51;1.92;;;1.52;;
23628;SDS011;11991;57.150;-2.134;2023-05-10T07:39:19;1.38;;;1.25;;
23628;SDS011;11991;57.150;-2.134;2023-05-10T07:41:56;1.73;;;1.23;;
23628;SDS011;11991;57.150;-2.134;2023-05-10T07:44:23;1.80;;;1.50;;
23628;SDS011;11991;57.150;-2.134;2023-05-10T07:46:50;1.48;;;1.20;;
23628;SDS011;11991;57.150;-2.134;2023-05-10T07:49:17;2.13;;;1.50;;
23628;SDS011;11991;57.150;-2.134;2023-05-10T07:51:44;0.98;;;0.90;;
23628;SDS011;11991;57.150;-2.134;2023-05-10T07:54:11;2.67;;;1.40;;
23628;SDS011;11991;57.150;-2.134;2023-05-10T07:56:39;1.58;;;1.17;;
23628;SDS011;11991;57.150;-2.134;2023-05-10T07:59:08;2.10;;;1.40;;
23628;SDS011;11991;57.150;-2.134;2023-05-10T08:01:38;1.17;;;1.08;;
23628;SDS011;11991;57.150;-2.134;2023-05-10T08:04:05;1.65;;;1.13;;
23628;SDS011;11991;57.150;-2.134;2023-05-10T08:06:32;2.13;;;1.30;;
23628;SDS011;11991;57.150;-2.134;2023-05-10T08:08:59;1.90;;;1.60;;
23628;SDS011;11991;57.150;-2.134;2023-05-10T08:11:26;1.10;;;1.00;;
23628;SDS011;11991;57.150;-2.134;2023-05-10T08:13:59;1.65;;;1.48;;
23628;SDS011;11991;57.150;-2.134;2023-05-10T08:16:26;1.90;;;1.48;;
23628;SDS011;11991;57.150;-2.134;2023-05-10T08:18:53;1.13;;;0.90;;
23628;SDS011;11991;57.150;-2.134;2023-05-10T08:21:21;1.38;;;1.25;;
23628;SDS011;11991;57.150;-2.134;2023-05-10T08:23:49;1.33;;;1.20;;
23628;SDS011;11991;57.150;-2.134;2023-05-10T08:26:16;1.85;;;1.33;;
23628;SDS011;11991;57.150;-2.134;2023-05-10T08:28:43;0.88;;;0.82;;
23628;SDS011;11991;57.150;-2.134;2023-05-10T08:31:10;1.17;;;1.05;;
23628;SDS011;11991;57.150;-2.134;2023-05-10T08:33:37;1.00;;;0.90;;
23628;SDS011;11991;57.150;-2.134;2023-05-10T08:36:04;1.48;;;1.10;;
23628;SDS011;11991;57.150;-2.134;2023-05-10T08:38:32;1.15;;;1.00;;
23628;SDS011;11991;57.150;-2.134;2023-05-10T08:40:59;1.30;;;1.02;;
23628;SDS011;11991;57.150;-2.134;2023-05-10T08:43:28;1.35;;;1.00;;
23628;SDS011;11991;57.150;-2.134;2023-05-10T08:45:56;0.68;;;0.68;;
23628;SDS011;11991;57.150;-2.134;2023-05-10T08:48:29;1.23;;;1.10;;
23628;SDS011;11991;57.150;-2.134;2023-05-10T08:50:58;0.73;;;0.73;;
23628;SDS011;11991;57.150;-2.134;2023-05-10T08:53:27;0.75;;;0.75;;
23628;SDS011;11991;57.150;-2.134;2023-05-10T08:55:56;0.60;;;0.60;;
23628;SDS011;11991;57.150;-2.134;2023-05-10T08:58:24;0.73;;;0.70;;
23628;SDS011;11991;57.150;-2.134;2023-05-10T09:00:51;1.35;;;1.10;;
23628;SDS011;11991;57.150;-2.134;2023-05-10T09:03:19;1.20;;;1.02;;
23628;SDS011;11991;57.150;-2.134;2023-05-10T09:05:47;1.38;;;1.05;;
23628;SDS011;11991;57.150;-2.134;2023-05-10T09:08:15;1.70;;;1.17;;
23628;SDS011;11991;57.150;-2.134;2023-05-10T09:10:44;1.73;;;1.35;;
23628;SDS011;11991;57.150;-2.134;2023-05-10T09:13:14;1.10;;;1.00;;
23628;SDS011;11991;57.150;-2.134;2023-05-10T09:15:44;4.13;;;1.92;;
23628;SDS011;11991;57.150;-2.134;2023-05-10T09:18:12;1.35;;;1.00;;
23628;SDS011;11991;57.150;-2.134;2023-05-10T09:20:39;1.20;;;1.10;;
23628;SDS011;11991;57.150;-2.134;2023-05-10T09:23:07;1.23;;;0.95;;
23628;SDS011;11991;57.150;-2.134;2023-05-10T09:25:34;1.80;;;1.35;;
23628;SDS011;11991;57.150;-2.134;2023-05-10T09:28:01;1.52;;;1.42;;
23628;SDS011;11991;57.150;-2.134;2023-05-10T09:30:29;1.13;;;1.02;;
23628;SDS011;11991;57.150;-2.134;2023-05-10T09:32:58;1.58;;;1.33;;
23628;SDS011;11991;57.150;-2.134;2023-05-10T09:35:26;1.25;;;1.15;;
23628;SDS011;11991;57.150;-2.134;2023-05-10T09:37:56;1.08;;;0.98;;
23628;SDS011;11991;57.150;-2.134;2023-05-10T09:40:26;0.65;;;0.60;;
23628;SDS011;11991;57.150;-2.134;2023-05-10T09:45:26;1.85;;;1.13;;
23628;SDS011;11991;57.150;-2.134;2023-05-10T09:47:55;1.50;;;1.17;;
23628;SDS011;11991;57.150;-2.134;2023-05-10T09:50:23;0.70;;;0.70;;
23628;SDS011;11991;57.150;-2.134;2023-05-10T09:52:51;1.13;;;1.00;;
23628;SDS011;11991;57.150;-2.134;2023-05-10T09:55:19;1.13;;;1.02;;
23628;SDS011;11991;57.150;-2.134;2023-05-10T09:57:48;2.28;;;1.30;;
23628;SDS011;11991;57.150;-2.134;2023-05-10T10:00:17;1.08;;;0.98;;
23628;SDS011;11991;57.150;-2.134;2023-05-10T10:02:54;1.00;;;0.90;;
23628;SDS011;11991;57.150;-2.134;2023-05-10T10:05:27;1.60;;;1.30;;
23628;SDS011;11991;57.150;-2.134;2023-05-10T10:07:59;1.63;;;1.20;;
23628;SDS011;11991;57.150;-2.134;2023-05-10T10:10:27;1.00;;;0.80;;
23628;SDS011;11991;57.150;-2.134;2023-05-10T10:12:54;0.82;;;0.82;;
23628;SDS011;11991;57.150;-2.134;2023-05-10T10:15:22;1.35;;;1.25;;
23628;SDS011;11991;57.150;-2.134;2023-05-10T10:17:50;1.33;;;1.15;;
23628;SDS011;11991;57.150;-2.134;2023-05-10T10:20:19;0.98;;;0.88;;
23628;SDS011;11991;57.150;-2.134;2023-05-10T10:22:49;1.42;;;1.13;;
23628;SDS011;11991;57.150;-2.134;2023-05-10T10:25:16;1.30;;;1.20;;
23628;SDS011;11991;57.150;-2.134;2023-05-10T10:33:28;1.42;;;1.33;;
23628;SDS011;11991;57.150;-2.134;2023-05-10T10:35:58;1.40;;;1.15;;
23628;SDS011;11991;57.150;-2.134;2023-05-10T10:38:35;1.48;;;1.20;;
23628;SDS011;11991;57.150;-2.134;2023-05-10T10:41:20;1.65;;;1.15;;
23628;SDS011;11991;57.150;-2.134;2023-05-10T10:49:42;1.42;;;1.30;;
23628;SDS011;11991;57.150;-2.134;2023-05-10T10:57:33;1.13;;;0.98;;
23628;SDS011;11991;57.150;-2.134;2023-05-10T11:08:15;1.30;;;1.20;;
23628;SDS011;11991;57.150;-2.134;2023-05-10T11:24:32;1.48;;;1.30;;
23628;SDS011;11991;57.150;-2.134;2023-05-10T11:27:00;1.73;;;1.27;;
23628;SDS011;11991;57.150;-2.134;2023-05-10T11:29:27;2.35;;;1.92;;
23628;SDS011;11991;57.150;-2.134;2023-05-10T11:31:56;1.40;;;1.23;;
23628;SDS011;11991;57.150;-2.134;2023-05-10T11:34:28;2.22;;;1.60;;
23628;SDS011;11991;57.150;-2.134;2023-05-10T11:37:00;1.02;;;0.90;;
23628;SDS011;11991;57.150;-2.134;2023-05-10T11:39:28;1.42;;;1.20;;
23628;SDS011;11991;57.150;-2.134;2023-05-10T11:41:56;1.67;;;1.02;;
23628;SDS011;11991;57.150;-2.134;2023-05-10T11:44:31;1.67;;;0.98;;
23628;SDS011;11991;57.150;-2.134;2023-05-10T11:46:59;2.67;;;2.10;;
23628;SDS011;11991;57.150;-2.134;2023-05-10T11:49:27;2.95;;;2.22;;
23628;SDS011;11991;57.150;-2.134;2023-05-10T11:52:13;1.50;;;1.40;;
23628;SDS011;11991;57.150;-2.134;2023-05-10T11:54:53;2.15;;;1.25;;
23628;SDS011;11991;57.150;-2.134;2023-05-10T11:57:25;2.08;;;1.58;;
23628;SDS011;11991;57.150;-2.134;2023-05-10T11:59:53;1.88;;;1.23;;
23628;SDS011;11991;57.150;-2.134;2023-05-10T12:02:21;2.38;;;1.92;;
23628;SDS011;11991;57.150;-2.134;2023-05-10T12:04:49;1.90;;;1.15;;
23628;SDS011;11991;57.150;-2.134;2023-05-10T12:07:17;4.72;;;2.90;;
23628;SDS011;11991;57.150;-2.134;2023-05-10T12:09:44;2.78;;;2.35;;
23628;SDS011;11991;57.150;-2.134;2023-05-10T12:12:35;2.78;;;2.00;;
23628;SDS011;11991;57.150;-2.134;2023-05-10T12:15:05;2.25;;;1.60;;
23628;SDS011;11991;57.150;-2.134;2023-05-10T12:17:47;2.17;;;1.60;;
23628;SDS011;11991;57.150;-2.134;2023-05-10T12:22:44;2.38;;;2.03;;
23628;SDS011;11991;57.150;-2.134;2023-05-10T12:25:12;3.80;;;1.95;;
23628;SDS011;11991;57.150;-2.134;2023-05-10T12:27:39;2.45;;;2.08;;
23628;SDS011;11991;57.150;-2.134;2023-05-10T12:30:06;2.60;;;2.05;;
23628;SDS011;11991;57.150;-2.134;2023-05-10T12:32:40;2.90;;;2.10;;
23628;SDS011;11991;57.150;-2.134;2023-05-10T12:35:08;4.20;;;2.78;;
23628;SDS011;11991;57.150;-2.134;2023-05-10T12:37:35;3.15;;;2.55;;
23628;SDS011;11991;57.150;-2.134;2023-05-10T12:40:06;5.40;;;2.92;;
23628;SDS011;11991;57.150;-2.134;2023-05-10T12:42:35;2.28;;;1.90;;
23628;SDS011;11991;57.150;-2.134;2023-05-10T12:45:02;2.88;;;2.17;;
23628;SDS011;11991;57.150;-2.134;2023-05-10T12:47:32;2.17;;;1.92;;
23628;SDS011;11991;57.150;-2.134;2023-05-10T12:49:59;2.20;;;1.73;;
23628;SDS011;11991;57.150;-2.134;2023-05-10T12:52:28;4.05;;;2.65;;
23628;SDS011;11991;57.150;-2.134;2023-05-10T12:54:55;3.33;;;2.22;;
23628;SDS011;11991;57.150;-2.134;2023-05-10T12:57:22;4.22;;;3.53;;
23628;SDS011;11991;57.150;-2.134;2023-05-10T12:59:49;2.65;;;1.80;;
23628;SDS011;11991;57.150;-2.134;2023-05-10T13:02:16;6.03;;;3.15;;
23628;SDS011;11991;57.150;-2.134;2023-05-10T13:04:47;3.97;;;2.90;;
23628;SDS011;11991;57.150;-2.134;2023-05-10T13:07:16;3.20;;;2.17;;
23628;SDS011;11991;57.150;-2.134;2023-05-10T13:09:43;4.80;;;3.38;;
23628;SDS011;11991;57.150;-2.134;2023-05-10T13:12:10;5.72;;;3.42;;
23628;SDS011;11991;57.150;-2.134;2023-05-10T13:14:37;3.50;;;2.28;;
23628;SDS011;11991;57.150;-2.134;2023-05-10T13:17:06;6.30;;;3.00;;
23628;SDS011;11991;57.150;-2.134;2023-05-10T13:19:34;4.03;;;2.45;;
23628;SDS011;11991;57.150;-2.134;2023-05-10T13:22:01;4.75;;;2.83;;
23628;SDS011;11991;57.150;-2.134;2023-05-10T13:24:29;3.58;;;2.40;;
23628;SDS011;11991;57.150;-2.134;2023-05-10T13:26:56;4.40;;;3.03;;
23628;SDS011;11991;57.150;-2.134;2023-05-10T13:29:23;3.95;;;2.88;;
23628;SDS011;11991;57.150;-2.134;2023-05-10T13:31:50;3.10;;;2.22;;
23628;SDS011;11991;57.150;-2.134;2023-05-10T13:34:17;5.32;;;3.28;;
23628;SDS011;11991;57.150;-2.134;2023-05-10T13:36:47;4.75;;;2.97;;
23628;SDS011;11991;57.150;-2.134;2023-05-10T13:39:15;2.72;;;2.10;;
23628;SDS011;11991;57.150;-2.134;2023-05-10T13:41:43;4.00;;;2.70;;
23628;SDS011;11991;57.150;-2.134;2023-05-10T13:44:11;2.80;;;2.25;;
23628;SDS011;11991;57.150;-2.134;2023-05-10T13:46:40;2.55;;;1.83;;
23628;SDS011;11991;57.150;-2.134;2023-05-10T13:49:11;4.85;;;2.55;;
23628;SDS011;11991;57.150;-2.134;2023-05-10T13:51:38;4.10;;;3.05;;
23628;SDS011;11991;57.150;-2.134;2023-05-10T13:54:05;5.15;;;2.67;;
23628;SDS011;11991;57.150;-2.134;2023-05-10T13:56:32;3.53;;;1.90;;
23628;SDS011;11991;57.150;-2.134;2023-05-10T13:59:00;2.35;;;1.83;;
23628;SDS011;11991;57.150;-2.134;2023-05-10T14:01:27;3.05;;;2.00;;
23628;SDS011;11991;57.150;-2.134;2023-05-10T14:03:54;3.22;;;2.05;;
23628;SDS011;11991;57.150;-2.134;2023-05-10T14:06:21;1.63;;;1.50;;
23628;SDS011;11991;57.150;-2.134;2023-05-10T14:08:48;3.38;;;2.40;;
23628;SDS011;11991;57.150;-2.134;2023-05-10T14:11:15;2.22;;;1.48;;
23628;SDS011;11991;57.150;-2.134;2023-05-10T14:13:42;3.03;;;1.95;;
23628;SDS011;11991;57.150;-2.134;2023-05-10T14:16:09;4.30;;;2.40;;
23628;SDS011;11991;57.150;-2.134;2023-05-10T14:18:37;2.42;;;1.73;;
23628;SDS011;11991;57.150;-2.134;2023-05-10T14:21:04;2.60;;;1.40;;
23628;SDS011;11991;57.150;-2.134;2023-05-10T14:23:31;2.53;;;1.85;;
23628;SDS011;11991;57.150;-2.134;2023-05-10T14:25:58;3.10;;;1.95;;
23628;SDS011;11991;57.150;-2.134;2023-05-10T14:28:25;1.58;;;1.40;;
23628;SDS011;11991;57.150;-2.134;2023-05-10T14:30:53;1.75;;;1.65;;
23628;SDS011;11991;57.150;-2.134;2023-05-10T14:33:20;4.03;;;1.75;;
23628;SDS011;11991;57.150;-2.134;2023-05-10T14:35:47;1.70;;;1.50;;
23628;SDS011;11991;57.150;-2.134;2023-05-10T14:38:14;3.08;;;1.65;;
23628;SDS011;11991;57.150;-2.134;2023-05-10T14:40:42;2.50;;;1.23;;
23628;SDS011;11991;57.150;-2.134;2023-05-10T14:43:09;1.65;;;1.17;;
23628;SDS011;11991;57.150;-2.134;2023-05-10T14:45:36;1.38;;;1.27;;
23628;SDS011;11991;57.150;-2.134;2023-05-10T14:48:03;2.17;;;1.70;;
23628;SDS011;11991;57.150;-2.134;2023-05-10T14:50:31;1.67;;;1.40;;
23628;SDS011;11991;57.150;-2.134;2023-05-10T14:53:02;1.42;;;1.10;;
23628;SDS011;11991;57.150;-2.134;2023-05-10T14:55:30;1.02;;;0.93;;
23628;SDS011;11991;57.150;-2.134;2023-05-10T14:57:57;1.35;;;1.00;;
23628;SDS011;11991;57.150;-2.134;2023-05-10T15:00:25;1.23;;;1.10;;
23628;SDS011;11991;57.150;-2.134;2023-05-10T15:02:52;1.55;;;1.05;;
23628;SDS011;11991;57.150;-2.134;2023-05-10T15:05:20;1.75;;;1.17;;
23628;SDS011;11991;57.150;-2.134;2023-05-10T15:07:48;1.70;;;0.95;;
23628;SDS011;11991;57.150;-2.134;2023-05-10T15:10:15;1.00;;;0.90;;
23628;SDS011;11991;57.150;-2.134;2023-05-10T15:12:42;1.27;;;1.17;;
23628;SDS011;11991;57.150;-2.134;2023-05-10T15:15:09;0.80;;;0.80;;
23628;SDS011;11991;57.150;-2.134;2023-05-10T15:17:36;1.17;;;1.02;;
23628;SDS011;11991;57.150;-2.134;2023-05-10T15:20:03;1.05;;;0.90;;
23628;SDS011;11991;57.150;-2.134;2023-05-10T15:22:31;0.65;;;0.65;;
23628;SDS011;11991;57.150;-2.134;2023-05-10T15:24:59;1.67;;;1.20;;
23628;SDS011;11991;57.150;-2.134;2023-05-10T15:27:27;1.60;;;1.00;;
23628;SDS011;11991;57.150;-2.134;2023-05-10T15:29:53;2.20;;;1.48;;
23628;SDS011;11991;57.150;-2.134;2023-05-10T15:32:21;2.63;;;1.95;;
23628;SDS011;11991;57.150;-2.134;2023-05-10T15:34:48;2.35;;;1.45;;
23628;SDS011;11991;57.150;-2.134;2023-05-10T15:37:15;2.10;;;1.65;;
23628;SDS011;11991;57.150;-2.134;2023-05-10T15:39:43;2.08;;;1.50;;
23628;SDS011;11991;57.150;-2.134;2023-05-10T15:42:11;1.48;;;1.23;;
23628;SDS011;11991;57.150;-2.134;2023-05-10T15:44:38;2.70;;;1.63;;
23628;SDS011;11991;57.150;-2.134;2023-05-10T15:47:06;1.60;;;1.05;;